Date,TemperatureHighF,TemperatureAvgF,TemperatureLowF,DewpointHighF,DewpointAvgF,DewpointLowF,HumidityHigh,HumidityAvg,HumidityLow,PressureMaxIn,PressureMinIn,WindSpeedMaxMPH,WindSpeedAvgMPH,GustSpeedMaxMPH,PrecipitationSumIn
2013-9-1,82.6,77.6,73.6,71.5,68.4,64.6,81,73,64,30.00,29.91,8,4,22,0.01
2013-9-2,83.5,77.9,72.8,71.2,69.0,67.3,88,75,64,30.01,29.92,8,4,15,0.05
2013-9-3,82.9,77.6,72.2,71.2,68.8,66.4,83,75,62,30.00,29.92,7,3,15,0.00
2013-9-4,82.7,75.8,70.1,71.0,68.3,65.1,90,78,65,30.01,29.93,10,2,14,0.01
2013-9-5,84.4,77.4,71.1,71.2,67.6,64.8,83,72,58,30.07,29.96,8,2,12,0.00
2013-9-6,84.1,77.0,70.8,71.5,68.9,65.1,92,77,60,30.05,29.98,8,3,12,0.18
2013-9-7,84.1,78.0,72.8,74.9,72.2,69.9,93,83,70,30.02,29.92,9,4,15,0.28
2013-9-8,85.0,78.7,74.0,73.3,70.8,69.0,91,77,63,30.04,29.95,9,5,15,0.13
2013-9-9,84.4,78.6,74.3,71.8,69.6,67.3,82,74,61,30.06,29.96,8,4,15,0.00
2013-9-10,83.6,77.7,72.1,73.4,70.6,68.0,89,79,67,30.04,29.95,8,4,14,0.10
2013-9-11,83.7,77.7,74.2,74.2,71.3,69.0,87,81,69,30.06,29.95,8,3,13,0.03
2013-9-12,82.6,78.2,74.5,75.3,72.4,68.0,91,82,73,29.99,29.89,8,3,14,0.08
2013-9-13,84.6,78.6,73.8,73.6,71.1,68.6,90,78,65,29.92,29.83,8,4,17,0.06
2013-9-14,84.9,78.8,74.6,73.9,71.2,67.7,90,78,64,29.92,29.83,7,3,13,0.00
2013-9-15,84.8,79.0,73.7,72.7,70.5,69.0,90,76,64,29.96,29.86,9,4,14,0.01
2013-9-16,83.6,79.0,75.5,73.1,70.7,68.3,84,76,66,30.02,29.93,9,5,16,0.00
2013-9-17,82.7,76.9,72.2,73.7,71.1,68.9,93,82,73,30.00,29.92,8,5,17,0.43
2013-9-18,85.2,78.5,74.2,72.4,70.3,69.0,88,76,60,29.98,29.90,9,4,18,0.03
2013-9-19,84.7,78.7,75.1,72.2,70.0,68.4,84,75,62,30.02,29.91,8,5,12,0.00
2013-9-20,83.4,77.8,74.0,72.7,69.7,66.5,84,76,63,30.02,29.95,9,5,16,0.01
2013-9-21,83.4,77.3,72.0,72.3,69.0,66.6,87,76,67,30.00,29.91,9,5,19,0.07
2013-9-22,83.9,77.0,72.1,72.8,69.5,66.9,90,78,66,30.00,29.92,7,4,17,0.13
2013-9-23,84.6,77.7,72.4,72.8,69.9,67.8,90,77,66,29.99,29.90,8,4,14,0.01
2013-9-24,82.0,75.9,71.5,73.5,70.0,67.5,93,82,69,30.00,29.90,7,3,15,0.37
2013-9-25,83.0,76.3,71.2,74.0,69.8,66.6,93,81,65,30.02,29.92,7,3,13,0.19
2013-9-26,84.6,78.0,72.5,71.4,69.0,67.4,87,74,60,29.97,29.90,7,3,14,0.00
2013-9-27,83.8,78.4,74.5,71.9,69.6,67.6,82,75,63,30.05,29.92,10,5,14,0.00
2013-9-28,82.9,77.4,72.6,71.9,69.9,68.1,89,78,66,30.06,29.97,10,5,15,0.08
2013-9-29,82.6,77.5,73.6,71.9,69.2,66.7,83,76,65,30.03,29.91,7,4,14,0.00
2013-9-30,83.4,77.7,72.8,72.1,69.3,66.9,87,76,63,30.01,29.92,10,4,16,0.02